Apiliotis — SYVY — position and weather

sailwx.info

Track history (hours):
 
Tides and Currents Weather Stations Pressure Air Temp Water Temp Dewpoint Dewpoint Depression Visibility Wind Speed Wind Dir Waves Ship Positions

Apiliotis

Last reported at 2014-Jul-31 13:30 UTC. Time now 2014-Jul-31 15:42 UTC.
Position N 37°51' E 026°48'.

Length 79 m; draft 4.5 m.

Type: Ship. MMSI: 240438000.

Date/timePositionNaut miles runAvg speedWind from/ knotsBaromVisibWave heightAir tempDewpointWater temp
2014-Jul-31 13:30N 37°51' E 026°48'1212.2
2014-Jul-31 12:33N 37°55' E 026°34'1211.9
2014-Jul-31 11:33N 37°59' E 026°20'32 4.0
2014-Jul-31 03:28N 38°23' E 025°53'1010.9
2014-Jul-31 02:33N 38°32' E 025°48'61 2.2
2014-Jul-29 22:12N 39°33' E 025°44'3210.9
2014-Jul-29 19:16N 39°47' E 025°06'6 8.9
2014-Jul-29 18:34N 39°53' E 025°02'0 0.2
2014-Jul-29 17:30N 39°53' E 025°03'0 0.0
2014-Jul-29 16:33N 39°53' E 025°03'1 0.6
2014-Jul-29 15:28N 39°52' E 025°03'0 0.0
2014-Jul-29 14:33N 39°52' E 025°03'0 0.0
2014-Jul-29 13:13N 39°52' E 025°03'1 0.1
2014-Jul-29 05:27N 39°52' E 025°02'5 4.7
2014-Jul-29 04:27N 39°48' E 024°60'8 9.1
2014-Jul-29 03:33N 39°40' E 024°58'7 7.4
2014-Jul-29 02:33N 39°32' E 024°59'0 0.0
2014-Jul-29 01:33N 39°32' E 024°59'0 0.0
2014-Jul-29 00:33N 39°32' E 024°59'0 0.0
2014-Jul-28 23:33N 39°32' E 024°59'0 0.0
2014-Jul-28 22:33N 39°32' E 024°59'0 0.0
2014-Jul-28 21:33N 39°32' E 024°59'0 0.0
2014-Jul-28 20:33N 39°32' E 024°59'0 0.0
2014-Jul-28 19:33N 39°32' E 024°59'0 0.0
2014-Jul-28 18:33N 39°32' E 024°59'0 0.0
2014-Jul-28 17:33N 39°32' E 024°59'1210.3
2014-Jul-28 16:24N 39°26' E 024°46'1011.4
2014-Jul-28 15:33N 39°20' E 024°37'1111.3
2014-Jul-28 14:33N 39°13' E 024°25'1611.4
2014-Jul-28 13:11N 39°03' E 024°10'27 2.2
2014-Jul-28 01:10N 39°13' E 023°37'41 3.5
2014-Jul-27 13:33N 38°49' E 024°20'74 6.0
2014-Jul-27 01:22N 37°38' E 023°56'1012.7
2014-Jul-27 00:33N 37°40' E 023°43'1212.4
2014-Jul-26 23:33N 37°48' E 023°32'1110.6
2014-Jul-26 22:33N 37°57' E 023°24'10 9.7
2014-Jul-26 21:33N 38°02' E 023°34'1 1.0
2014-Jul-26 20:31N 38°02' E 023°36'0 0.0
2014-Jul-26 19:31N 38°02' E 023°36'0 0.0
2014-Jul-26 18:33N 38°02' E 023°36'0 0.0
2014-Jul-26 17:33N 38°02' E 023°36'0 0.0
2014-Jul-26 16:33N 38°02' E 023°36'0 0.0
2014-Jul-26 15:33N 38°02' E 023°36'0 0.0
2014-Jul-26 14:34N 38°02' E 023°36'1 0.8
2014-Jul-26 13:33N 38°02' E 023°35'2 1.6
2014-Jul-26 12:33N 38°02' E 023°33'0 0.4
2014-Jul-26 11:33N 38°02' E 023°32'0 0.0
2014-Jul-26 10:33N 38°02' E 023°32'0 0.0
2014-Jul-26 09:33N 38°02' E 023°32'0 0.0
2014-Jul-26 08:33N 38°02' E 023°32'0 0.0
2014-Jul-26 07:33N 38°02' E 023°32'0 0.0
2014-Jul-26 06:32N 38°02' E 023°32'0 0.0
2014-Jul-26 05:32N 38°02' E 023°32'3 3.3
2014-Jul-26 04:33N 37°59' E 023°33'6 5.9
2014-Jul-26 03:33N 37°54' E 023°37'1110.6
2014-Jul-26 02:33N 37°44' E 023°43'1010.3
2014-Jul-26 01:33N 37°37' E 023°53'26 3.1
2014-Jul-25 17:07N 37°30' E 024°24'711.7
2014-Jul-25 16:33N 37°36' E 024°29'23 2.8
2014-Jul-25 08:18N 37°38' E 024°58'811.3
2014-Jul-25 07:34N 37°33' E 025°06'2 2.3
2014-Jul-25 06:33N 37°32' E 025°09'0 0.0
2014-Jul-25 05:33N 37°32' E 025°09'0 0.0
2014-Jul-25 04:33N 37°32' E 025°09'0 0.0
2014-Jul-25 03:33N 37°32' E 025°09'6 6.2
2014-Jul-25 02:33N 37°29' E 025°16'3 3.1
2014-Jul-25 01:33N 37°28' E 025°19'0 0.0
2014-Jul-25 00:33N 37°28' E 025°19'0 0.0
2014-Jul-24 23:33N 37°28' E 025°19'0 0.0
2014-Jul-24 22:33N 37°28' E 025°19'0 0.0
2014-Jul-24 21:33N 37°28' E 025°19'0 0.0
2014-Jul-24 20:33N 37°28' E 025°19'1 0.7
2014-Jul-24 19:33N 37°27' E 025°19'4 3.9
2014-Jul-24 18:33N 37°31' E 025°22'1110.9
2014-Jul-24 17:33N 37°31' E 025°35'1110.9
2014-Jul-24 16:32N 37°30' E 025°49'1111.4
2014-Jul-24 15:34N 37°30' E 026°03'1211.8
2014-Jul-24 14:33N 37°35' E 026°17'2 1.5
2014-Jul-24 13:32N 37°37' E 026°18'0 0.0
2014-Jul-24 12:17N 37°37' E 026°18'2 1.8
2014-Jul-24 11:12N 37°38' E 026°20'  
Track history (hours):
 
Tides and Currents Weather Stations Pressure Air Temp Water Temp Dewpoint Dewpoint Depression Visibility Wind Speed Wind Dir Waves Ship Positions

Apiliotis

Last reported at 2014-Jul-31 13:30 UTC. Time now 2014-Jul-31 15:42 UTC.
Position N 37°51' E 026°48'.

Length 79 m; draft 4.5 m.

Type: Ship. MMSI: 240438000.

Date/timePositionNaut miles runAvg speedWind from/ knotsBaromVisibWave heightAir tempDewpointWater temp
2014-Jul-31 13:30N 37°51' E 026°48'1212.2
2014-Jul-31 12:33N 37°55' E 026°34'1211.9
2014-Jul-31 11:33N 37°59' E 026°20'32 4.0
2014-Jul-31 03:28N 38°23' E 025°53'1010.9
2014-Jul-31 02:33N 38°32' E 025°48'61 2.2
2014-Jul-29 22:12N 39°33' E 025°44'3210.9
2014-Jul-29 19:16N 39°47' E 025°06'6 8.9
2014-Jul-29 18:34N 39°53' E 025°02'0 0.2
2014-Jul-29 17:30N 39°53' E 025°03'0 0.0
2014-Jul-29 16:33N 39°53' E 025°03'1 0.6
2014-Jul-29 15:28N 39°52' E 025°03'0 0.0
2014-Jul-29 14:33N 39°52' E 025°03'0 0.0
2014-Jul-29 13:13N 39°52' E 025°03'1 0.1
2014-Jul-29 05:27N 39°52' E 025°02'5 4.7
2014-Jul-29 04:27N 39°48' E 024°60'8 9.1
2014-Jul-29 03:33N 39°40' E 024°58'7 7.4
2014-Jul-29 02:33N 39°32' E 024°59'0 0.0
2014-Jul-29 01:33N 39°32' E 024°59'0 0.0
2014-Jul-29 00:33N 39°32' E 024°59'0 0.0
2014-Jul-28 23:33N 39°32' E 024°59'0 0.0
2014-Jul-28 22:33N 39°32' E 024°59'0 0.0
2014-Jul-28 21:33N 39°32' E 024°59'0 0.0
2014-Jul-28 20:33N 39°32' E 024°59'0 0.0
2014-Jul-28 19:33N 39°32' E 024°59'0 0.0
2014-Jul-28 18:33N 39°32' E 024°59'0 0.0
2014-Jul-28 17:33N 39°32' E 024°59'1210.3
2014-Jul-28 16:24N 39°26' E 024°46'1011.4
2014-Jul-28 15:33N 39°20' E 024°37'1111.3
2014-Jul-28 14:33N 39°13' E 024°25'1611.4
2014-Jul-28 13:11N 39°03' E 024°10'27 2.2
2014-Jul-28 01:10N 39°13' E 023°37'41 3.5
2014-Jul-27 13:33N 38°49' E 024°20'74 6.0
2014-Jul-27 01:22N 37°38' E 023°56'1012.7
2014-Jul-27 00:33N 37°40' E 023°43'1212.4
2014-Jul-26 23:33N 37°48' E 023°32'1110.6
2014-Jul-26 22:33N 37°57' E 023°24'10 9.7
2014-Jul-26 21:33N 38°02' E 023°34'1 1.0
2014-Jul-26 20:31N 38°02' E 023°36'0 0.0
2014-Jul-26 19:31N 38°02' E 023°36'0 0.0
2014-Jul-26 18:33N 38°02' E 023°36'0 0.0
2014-Jul-26 17:33N 38°02' E 023°36'0 0.0
2014-Jul-26 16:33N 38°02' E 023°36'0 0.0
2014-Jul-26 15:33N 38°02' E 023°36'0 0.0
2014-Jul-26 14:34N 38°02' E 023°36'1 0.8
2014-Jul-26 13:33N 38°02' E 023°35'2 1.6
2014-Jul-26 12:33N 38°02' E 023°33'0 0.4
2014-Jul-26 11:33N 38°02' E 023°32'0 0.0
2014-Jul-26 10:33N 38°02' E 023°32'0 0.0
2014-Jul-26 09:33N 38°02' E 023°32'0 0.0
2014-Jul-26 08:33N 38°02' E 023°32'0 0.0
2014-Jul-26 07:33N 38°02' E 023°32'0 0.0
2014-Jul-26 06:32N 38°02' E 023°32'0 0.0
2014-Jul-26 05:32N 38°02' E 023°32'3 3.3
2014-Jul-26 04:33N 37°59' E 023°33'6 5.9
2014-Jul-26 03:33N 37°54' E 023°37'1110.6
2014-Jul-26 02:33N 37°44' E 023°43'1010.3
2014-Jul-26 01:33N 37°37' E 023°53'26 3.1
2014-Jul-25 17:07N 37°30' E 024°24'711.7
2014-Jul-25 16:33N 37°36' E 024°29'23 2.8
2014-Jul-25 08:18N 37°38' E 024°58'811.3
2014-Jul-25 07:34N 37°33' E 025°06'2 2.3
2014-Jul-25 06:33N 37°32' E 025°09'0 0.0
2014-Jul-25 05:33N 37°32' E 025°09'0 0.0
2014-Jul-25 04:33N 37°32' E 025°09'0 0.0
2014-Jul-25 03:33N 37°32' E 025°09'6 6.2
2014-Jul-25 02:33N 37°29' E 025°16'3 3.1
2014-Jul-25 01:33N 37°28' E 025°19'0 0.0
2014-Jul-25 00:33N 37°28' E 025°19'0 0.0
2014-Jul-24 23:33N 37°28' E 025°19'0 0.0
2014-Jul-24 22:33N 37°28' E 025°19'0 0.0
2014-Jul-24 21:33N 37°28' E 025°19'0 0.0
2014-Jul-24 20:33N 37°28' E 025°19'1 0.7
2014-Jul-24 19:33N 37°27' E 025°19'4 3.9
2014-Jul-24 18:33N 37°31' E 025°22'1110.9
2014-Jul-24 17:33N 37°31' E 025°35'1110.9
2014-Jul-24 16:32N 37°30' E 025°49'1111.4
2014-Jul-24 15:34N 37°30' E 026°03'1211.8
2014-Jul-24 14:33N 37°35' E 026°17'2 1.5
2014-Jul-24 13:32N 37°37' E 026°18'0 0.0
2014-Jul-24 12:17N 37°37' E 026°18'2 1.8
2014-Jul-24 11:12N 37°38' E 026°20'  

Dump ship's entire track history